Time;durP1;ratioP1;P1;durP2;ratioP2;P2;SDS_P1;SDS_P2;PMS_P1;PMS_P2;Temp;Humidity;BMP_temperature;BMP_pressure;BME280_temperature;BME280_humidity;BME280_pressure;Samples;Min_cycle;Max_cycle;Signal;HPM_P1;HPM_P2
2022/09/30 00:01:04;;;;;;;;;;;461.50;2380.80;;;;;;5089718;28;20026;-60
2022/09/30 00:03:30;;;;;;;;;;;461.40;2380.80;;;;;;5089134;28;19935;-59
2022/09/30 00:05:59;;;;;;;;;;;461.40;2380.80;;;;;;5089729;28;19920;-61
2022/09/30 00:08:25;;;;;;;;;;;461.30;2380.80;;;;;;5089790;28;19920;-58
2022/09/30 00:11:07;;;;;;;;;;;461.30;2380.80;;;;;;5090050;28;19916;-60
2022/09/30 00:13:34;;;;;;;;;;;461.20;2380.80;;;;;;5088708;28;20255;-60
2022/09/30 00:16:00;;;;;;;;;;;461.10;2380.80;;;;;;5090066;28;19915;-62
2022/09/30 00:18:26;;;;;;;;;;;461.10;2380.80;;;;;;5089803;28;19908;-60
2022/09/30 00:20:52;;;;;;;;;;;460.90;2380.80;;;;;;5090102;28;19912;-61
2022/09/30 00:23:18;;;;;;;;;;;460.80;2380.80;;;;;;5089475;28;20385;-61
2022/09/30 00:25:43;;;;;;;;;;;460.80;2380.80;;;;;;5090201;28;19931;-60
2022/09/30 00:28:09;;;;;;;;;;;436.10;2355.20;;;;;;5090287;28;19916;-63
2022/09/30 00:30:34;;;;;;;;;;;436.00;2355.20;;;;;;5090056;28;19908;-61
2022/09/30 00:33:00;;;;;;;;;;;436.00;2355.20;;;;;;5090255;28;19998;-62
2022/09/30 00:35:26;;;;;;;;;;;435.90;2355.20;;;;;;5090119;28;19930;-61
2022/09/30 00:37:51;;;;;;;;;;;435.90;2355.20;;;;;;5090495;28;20003;-61
2022/09/30 00:40:20;;;;;;;;;;;435.80;2355.20;;;;;;5089999;28;19954;-59
2022/09/30 00:42:45;;;;;;;;;;;435.60;2355.20;;;;;;5089875;28;19987;-61
2022/09/30 00:45:12;;;;;;;;;;;435.60;2355.20;;;;;;5089990;28;19948;-60
2022/09/30 00:47:42;;;;;;;;;;;435.50;2355.20;;;;;;5089814;28;19999;-61
2022/09/30 00:50:25;;;;;;;;;;;435.50;2355.20;;;;;;5089909;28;19908;-61
2022/09/30 00:52:54;;;;;;;;;;;435.50;2355.20;;;;;;5090651;28;19916;-62
2022/09/30 00:55:24;;;;;;;;;;;435.50;2355.20;;;;;;5093766;28;20015;-62
2022/09/30 00:57:50;;;;;;;;;;;435.60;2355.20;;;;;;5093729;28;19908;-64
2022/09/30 01:00:16;;;;;;;;;;;435.60;2355.20;;;;;;5093211;28;19909;-62
2022/09/30 01:02:41;;;;;;;;;;;435.60;2355.20;;;;;;5093374;28;20003;-62
2022/09/30 01:05:10;;;;;;;;;;;435.60;2355.20;;;;;;5093212;28;19985;-62
2022/09/30 01:07:36;;;;;;;;;;;435.50;2355.20;;;;;;5093152;28;19916;-63
2022/09/30 01:10:02;;;;;;;;;;;435.30;2355.20;;;;;;5093446;28;19908;-62
2022/09/30 01:12:27;;;;;;;;;;;435.40;2355.20;;;;;;5093419;28;20258;-63
2022/09/30 01:14:54;;;;;;;;;;;435.40;2355.20;;;;;;5092916;28;19908;-62
2022/09/30 01:17:20;;;;;;;;;;;435.50;2355.20;;;;;;5093306;28;19999;-62
2022/09/30 01:19:45;;;;;;;;;;;435.40;2355.20;;;;;;5093053;28;20079;-63
2022/09/30 01:22:21;;;;;;;;;;;435.40;2355.20;;;;;;5093301;28;19951;-62
2022/09/30 01:25:05;;;;;;;;;;;435.40;2355.20;;;;;;5093014;28;19908;-62
2022/09/30 01:27:30;;;;;;;;;;;435.50;2355.20;;;;;;5093247;28;19916;-62
2022/09/30 01:29:56;;;;;;;;;;;435.40;2355.20;;;;;;5092917;28;19976;-62
2022/09/30 01:32:24;;;;;;;;;;;435.40;2355.20;;;;;;5093150;28;19908;-62
2022/09/30 01:35:08;;;;;;;;;;;435.50;2355.20;;;;;;5092873;28;19912;-61
2022/09/30 01:37:52;;;;;;;;;;;435.50;2355.20;;;;;;5092696;28;20002;-61
2022/09/30 01:40:24;;;;;;;;;;;435.40;2355.20;;;;;;5092655;28;20015;-61
2022/09/30 01:43:04;;;;;;;;;;;410.00;2355.20;;;;;;5092995;28;19915;-63
2022/09/30 01:45:36;;;;;;;;;;;410.30;2355.20;;;;;;5092654;28;19955;-62
2022/09/30 01:48:02;;;;;;;;;;;410.30;2355.20;;;;;;5092573;28;19969;-62
2022/09/30 01:50:46;;;;;;;;;;;410.20;2355.20;;;;;;5092636;28;19908;-62
2022/09/30 01:53:32;;;;;;;;;;;410.20;2355.20;;;;;;5092586;28;19908;-62
2022/09/30 01:56:14;;;;;;;;;;;410.40;2355.20;;;;;;5092390;28;19908;-62
2022/09/30 01:58:52;;;;;;;;;;;410.40;2355.20;;;;;;5092530;28;19912;-62
2022/09/30 02:01:24;;;;;;;;;;;410.50;2355.20;;;;;;5092331;28;19915;-62
2022/09/30 02:03:57;;;;;;;;;;;410.50;2355.20;;;;;;5092247;28;19920;-62
2022/09/30 02:06:25;;;;;;;;;;;435.20;2355.20;;;;;;5091677;28;20393;-62
2022/09/30 02:08:50;;;;;;;;;;;435.30;2355.20;;;;;;5092224;28;19939;-62
2022/09/30 02:11:19;;;;;;;;;;;435.30;2355.20;;;;;;5092155;28;19908;-61
2022/09/30 02:13:50;;;;;;;;;;;435.30;2355.20;;;;;;5092255;28;19908;-62
2022/09/30 02:16:18;;;;;;;;;;;435.30;2355.20;;;;;;5091939;28;19954;-62
2022/09/30 02:18:46;;;;;;;;;;;435.30;2355.20;;;;;;5091957;28;19915;-61
2022/09/30 02:21:14;;;;;;;;;;;435.20;2355.20;;;;;;5092227;28;19943;-62
2022/09/30 02:23:41;;;;;;;;;;;435.30;2355.20;;;;;;5092030;28;19917;-63
2022/09/30 02:26:21;;;;;;;;;;;435.30;2355.20;;;;;;5091786;28;20361;-62
2022/09/30 02:28:52;;;;;;;;;;;435.30;2355.20;;;;;;5091758;28;19923;-62
2022/09/30 02:31:20;;;;;;;;;;;435.30;2355.20;;;;;;5091850;28;19994;-61
2022/09/30 02:33:55;;;;;;;;;;;435.30;2355.20;;;;;;5091583;28;19919;-62
2022/09/30 02:36:32;;;;;;;;;;;410.50;2355.20;;;;;;5091714;28;19912;-60
2022/09/30 02:39:09;;;;;;;;;;;410.50;2355.20;;;;;;5091135;28;19919;-62
2022/09/30 02:41:48;;;;;;;;;;;410.40;2355.20;;;;;;5090089;28;19914;-61
2022/09/30 02:44:14;;;;;;;;;;;410.50;2355.20;;;;;;5091377;28;19947;-61
2022/09/30 02:46:43;;;;;;;;;;;435.20;2355.20;;;;;;5091393;28;19954;-61
2022/09/30 02:49:27;;;;;;;;;;;435.30;2355.20;;;;;;5091294;28;19912;-61
2022/09/30 02:52:19;;;;;;;;;;;435.20;2355.20;;;;;;5091618;28;19956;-62
2022/09/30 02:55:03;;;;;;;;;;;436.10;2355.20;;;;;;5091252;28;19999;-61
2022/09/30 02:57:36;;;;;;;;;;;435.30;2355.20;;;;;;5091567;28;19915;-62
2022/09/30 03:00:03;;;;;;;;;;;435.30;2355.20;;;;;;5091353;28;20337;-60
2022/09/30 03:02:29;;;;;;;;;;;435.40;2355.20;;;;;;5091346;28;19909;-60
2022/09/30 03:04:54;;;;;;;;;;;435.50;2355.20;;;;;;5090823;28;20398;-61
2022/09/30 03:07:20;;;;;;;;;;;435.60;2355.20;;;;;;5091256;28;19915;-60
2022/09/30 03:09:45;;;;;;;;;;;435.70;2355.20;;;;;;5090973;28;19914;-62
2022/09/30 03:12:17;;;;;;;;;;;435.70;2355.20;;;;;;5091282;28;20247;-61
2022/09/30 03:14:51;;;;;;;;;;;435.80;2355.20;;;;;;5090973;28;19911;-61
2022/09/30 03:17:35;;;;;;;;;;;435.90;2355.20;;;;;;5090867;28;20340;-62
2022/09/30 03:20:01;;;;;;;;;;;436.10;2355.20;;;;;;5091096;28;19912;-60
2022/09/30 03:22:45;;;;;;;;;;;436.10;2355.20;;;;;;5090718;28;20438;-63
2022/09/30 03:25:40;;;;;;;;;;;436.10;2355.20;;;;;;5089720;28;19999;-63
2022/09/30 03:28:22;;;;;;;;;;;436.10;2355.20;;;;;;5090847;28;19916;-61
2022/09/30 03:31:11;;;;;;;;;;;460.80;2380.80;;;;;;5090524;28;19914;-61
2022/09/30 03:33:46;;;;;;;;;;;460.80;2380.80;;;;;;5087397;28;19981;-61
2022/09/30 03:36:24;;;;;;;;;;;460.90;2380.80;;;;;;5090852;28;19952;-61
2022/09/30 03:39:00;;;;;;;;;;;461.00;2380.80;;;;;;5090958;28;19914;-61
2022/09/30 03:41:45;;;;;;;;;;;461.10;2380.80;;;;;;5090538;28;19915;-62
2022/09/30 03:44:10;;;;;;;;;;;461.30;2380.80;;;;;;5090792;28;20278;-63
2022/09/30 03:46:41;;;;;;;;;;;461.40;2380.80;;;;;;5090338;28;19908;-61
2022/09/30 03:49:12;;;;;;;;;;;461.50;2380.80;;;;;;5090373;28;19919;-60
2022/09/30 03:51:38;;;;;;;;;;;461.50;2380.80;;;;;;5090403;28;19908;-60
2022/09/30 03:54:11;;;;;;;;;;;461.60;2380.80;;;;;;5090409;28;19908;-61
2022/09/30 03:56:41;;;;;;;;;;;461.60;2380.80;;;;;;5090626;28;20341;-62
2022/09/30 03:59:09;;;;;;;;;;;461.70;2380.80;;;;;;5090494;28;20263;-62
2022/09/30 04:01:34;;;;;;;;;;;461.70;2380.80;;;;;;5090366;28;19908;-61
2022/09/30 04:04:00;;;;;;;;;;;461.70;2380.80;;;;;;5090307;28;19923;-62
2022/09/30 04:06:25;;;;;;;;;;;461.70;2380.80;;;;;;5090226;28;19916;-61
2022/09/30 04:08:52;;;;;;;;;;;486.40;2380.80;;;;;;5090716;28;19920;-60
2022/09/30 04:11:18;;;;;;;;;;;461.70;2380.80;;;;;;5090612;28;19915;-60
2022/09/30 04:13:44;;;;;;;;;;;486.40;2380.80;;;;;;5090185;28;19912;-62
2022/09/30 04:16:09;;;;;;;;;;;461.70;2380.80;;;;;;5090292;28;20369;-60
2022/09/30 04:18:36;;;;;;;;;;;461.70;2380.80;;;;;;5090293;28;20278;-61
2022/09/30 04:21:05;;;;;;;;;;;461.70;2380.80;;;;;;5090467;28;20265;-61
2022/09/30 04:23:32;;;;;;;;;;;461.70;2380.80;;;;;;5090204;28;20331;-61
2022/09/30 04:25:58;;;;;;;;;;;461.60;2380.80;;;;;;5090471;28;20357;-59
2022/09/30 04:28:24;;;;;;;;;;;461.60;2380.80;;;;;;5091457;28;19916;-61
2022/09/30 04:30:49;;;;;;;;;;;461.60;2380.80;;;;;;5094255;28;20342;-60
2022/09/30 04:33:15;;;;;;;;;;;461.70;2380.80;;;;;;5093791;28;20404;-60
2022/09/30 04:35:40;;;;;;;;;;;461.70;2380.80;;;;;;5094123;28;20373;-60
2022/09/30 04:38:06;;;;;;;;;;;461.70;2380.80;;;;;;5093679;28;19908;-61
2022/09/30 04:40:34;;;;;;;;;;;461.70;2380.80;;;;;;5094052;28;19908;-62
2022/09/30 04:43:00;;;;;;;;;;;461.70;2380.80;;;;;;5094097;28;19951;-63
2022/09/30 04:45:26;;;;;;;;;;;461.70;2380.80;;;;;;5093623;28;19954;-62
2022/09/30 04:47:51;;;;;;;;;;;461.60;2380.80;;;;;;5093988;28;19916;-63
2022/09/30 04:50:17;;;;;;;;;;;461.60;2380.80;;;;;;5093674;28;19908;-62
2022/09/30 04:52:43;;;;;;;;;;;461.70;2380.80;;;;;;5093457;28;19912;-62
2022/09/30 04:55:09;;;;;;;;;;;461.70;2380.80;;;;;;5093842;28;19912;-62
2022/09/30 04:57:34;;;;;;;;;;;461.70;2380.80;;;;;;5093379;28;19908;-62
2022/09/30 05:00:00;;;;;;;;;;;461.70;2380.80;;;;;;5093746;28;19909;-62
2022/09/30 05:02:26;;;;;;;;;;;461.70;2380.80;;;;;;5093237;28;20361;-63
2022/09/30 05:04:54;;;;;;;;;;;461.70;2380.80;;;;;;5093528;28;19955;-61
2022/09/30 05:07:19;;;;;;;;;;;461.70;2380.80;;;;;;5093423;28;19916;-62
2022/09/30 05:09:45;;;;;;;;;;;461.70;2380.80;;;;;;5093277;28;19915;-63
2022/09/30 05:12:11;;;;;;;;;;;486.40;2380.80;;;;;;5093587;28;19908;-61
2022/09/30 05:14:36;;;;;;;;;;;486.40;2380.80;;;;;;5093187;28;19908;-63
2022/09/30 05:17:02;;;;;;;;;;;486.50;2380.80;;;;;;5093353;28;19908;-63
2022/09/30 05:19:28;;;;;;;;;;;486.40;2380.80;;;;;;5093119;28;19915;-64
2022/09/30 05:21:53;;;;;;;;;;;486.50;2380.80;;;;;;5093157;28;19912;-62
2022/09/30 05:24:19;;;;;;;;;;;486.50;2380.80;;;;;;5093425;28;19912;-61
2022/09/30 05:26:44;;;;;;;;;;;486.50;2380.80;;;;;;5092736;28;19912;-63
2022/09/30 05:29:10;;;;;;;;;;;486.50;2380.80;;;;;;5093086;28;19958;-61
2022/09/30 05:31:36;;;;;;;;;;;486.60;2380.80;;;;;;5091521;28;19908;-63
2022/09/30 05:34:01;;;;;;;;;;;486.60;2380.80;;;;;;5092943;28;19912;-62
2022/09/30 05:36:27;;;;;;;;;;;486.60;2380.80;;;;;;5092814;28;19919;-63
2022/09/30 05:38:53;;;;;;;;;;;486.70;2380.80;;;;;;5092723;28;20362;-63
2022/09/30 05:41:19;;;;;;;;;;;486.60;2380.80;;;;;;5091983;28;19915;-62
2022/09/30 05:43:46;;;;;;;;;;;486.60;2380.80;;;;;;5092774;28;19915;-62
2022/09/30 05:46:13;;;;;;;;;;;486.70;2380.80;;;;;;5092761;28;19908;-61
2022/09/30 05:48:38;;;;;;;;;;;486.70;2380.80;;;;;;5092810;28;19923;-62
2022/09/30 05:51:04;;;;;;;;;;;486.90;2380.80;;;;;;5092429;28;19912;-62
2022/09/30 05:53:30;;;;;;;;;;;487.00;2380.80;;;;;;5092612;28;19909;-63
2022/09/30 05:55:56;;;;;;;;;;;487.20;2380.80;;;;;;5092420;28;19961;-64
2022/09/30 05:58:21;;;;;;;;;;;512.00;2380.80;;;;;;5092564;28;19908;-65
2022/09/30 06:00:48;;;;;;;;;;;512.30;2380.80;;;;;;5092194;28;19908;-64
2022/09/30 06:03:14;;;;;;;;;;;538.00;2406.40;;;;;;5092038;28;20362;-62
2022/09/30 06:05:39;;;;;;;;;;;589.40;2329.60;;;;;;5092205;28;19925;-65
2022/09/30 06:08:08;;;;;;;;;;;615.20;2073.60;;;;;;5092194;28;20277;-65
2022/09/30 06:10:34;;;;;;;;;;;640.70;1945.60;;;;;;5091872;28;19912;-60
2022/09/30 06:13:02;;;;;;;;;;;666.30;1894.40;;;;;;5092224;28;20351;-67
2022/09/30 06:15:27;;;;;;;;;;;691.20;1817.60;;;;;;5091900;28;19995;-66
2022/09/30 06:17:53;;;;;;;;;;;692.10;1740.80;;;;;;5092316;28;19973;-64
2022/09/30 06:20:19;;;;;;;;;;;717.00;1740.80;;;;;;5092273;28;19915;-67
2022/09/30 06:22:44;;;;;;;;;;;717.10;1715.20;;;;;;5092122;28;19950;-63
2022/09/30 06:25:10;;;;;;;;;;;716.80;1715.20;;;;;;5092203;28;20262;-62
2022/09/30 06:27:38;;;;;;;;;;;717.20;1689.60;;;;;;5091805;28;19994;-68
2022/09/30 06:30:07;;;;;;;;;;;717.50;1664.00;;;;;;5091795;28;20346;-62
2022/09/30 06:32:33;;;;;;;;;;;717.50;1638.40;;;;;;5091753;28;19916;-65
2022/09/30 06:34:59;;;;;;;;;;;717.20;1689.60;;;;;;5090451;28;19912;-68
2022/09/30 06:37:24;;;;;;;;;;;717.30;1664.00;;;;;;5091677;28;19943;-63
2022/09/30 06:39:50;;;;;;;;;;;717.60;1664.00;;;;;;5091952;28;19908;-70
2022/09/30 06:42:17;;;;;;;;;;;717.60;1638.40;;;;;;5091638;28;19994;-63
2022/09/30 06:44:43;;;;;;;;;;;742.40;1638.40;;;;;;5091890;28;20012;-63
2022/09/30 06:47:09;;;;;;;;;;;717.60;1612.80;;;;;;5091743;28;20010;-69
2022/09/30 06:49:35;;;;;;;;;;;742.40;1612.80;;;;;;5091510;28;19948;-69
2022/09/30 06:52:01;;;;;;;;;;;717.40;1638.40;;;;;;5091372;28;19994;-67
2022/09/30 06:54:29;;;;;;;;;;;742.40;1638.40;;;;;;5091326;28;19908;-67
2022/09/30 06:56:56;;;;;;;;;;;742.40;1664.00;;;;;;5091305;28;20350;-63
2022/09/30 06:59:22;;;;;;;;;;;742.50;1664.00;;;;;;5091569;28;20001;-69
2022/09/30 07:01:48;;;;;;;;;;;742.90;1664.00;;;;;;5091367;28;19957;-69
2022/09/30 07:04:13;;;;;;;;;;;768.20;1612.80;;;;;;5090719;28;20012;-65
2022/09/30 07:06:40;;;;;;;;;;;768.60;1587.20;;;;;;5091497;28;19919;-69
2022/09/30 07:09:06;;;;;;;;;;;768.10;1587.20;;;;;;5090971;28;19916;-69
2022/09/30 07:11:32;;;;;;;;;;;768.20;1587.20;;;;;;5091186;28;19916;-69
2022/09/30 07:13:57;;;;;;;;;;;717.50;1664.00;;;;;;5091187;28;20020;-67
2022/09/30 07:16:24;;;;;;;;;;;716.90;1715.20;;;;;;5091253;28;20420;-65
2022/09/30 07:18:50;;;;;;;;;;;691.80;1715.20;;;;;;5090961;28;19909;-68
2022/09/30 07:21:16;;;;;;;;;;;691.70;1766.40;;;;;;5090908;28;19908;-64
2022/09/30 07:23:46;;;;;;;;;;;691.30;1817.60;;;;;;5090905;28;19998;-64
2022/09/30 07:26:12;;;;;;;;;;;691.60;1792.00;;;;;;5090713;28;19908;-64
2022/09/30 07:28:38;;;;;;;;;;;692.10;1766.40;;;;;;5090522;28;19916;-62
2022/09/30 07:31:10;;;;;;;;;;;717.60;1766.40;;;;;;5090771;28;19978;-63
2022/09/30 07:33:37;;;;;;;;;;;743.00;1715.20;;;;;;5090525;28;19912;-59
2022/09/30 07:36:06;;;;;;;;;;;768.90;1638.40;;;;;;5090795;28;19919;-60
2022/09/30 07:38:32;;;;;;;;;;;793.90;1612.80;;;;;;5090979;28;20021;-60
2022/09/30 07:40:59;;;;;;;;;;;768.70;1587.20;;;;;;5090846;28;19920;-60
2022/09/30 07:43:33;;;;;;;;;;;768.70;1587.20;;;;;;5090807;28;19951;-60
2022/09/30 07:46:13;;;;;;;;;;;794.20;1561.60;;;;;;5090923;28;20006;-60
2022/09/30 07:48:44;;;;;;;;;;;819.60;1484.80;;;;;;5090728;28;19923;-60
2022/09/30 07:51:30;;;;;;;;;;;845.10;1459.20;;;;;;5089762;28;19987;-60
2022/09/30 07:54:00;;;;;;;;;;;870.70;1433.60;;;;;;5090624;28;20289;-60
2022/09/30 07:56:25;;;;;;;;;;;896.90;1331.20;;;;;;5090542;28;19908;-60
2022/09/30 07:58:55;;;;;;;;;;;922.00;1356.80;;;;;;5090713;28;19908;-60
2022/09/30 08:01:21;;;;;;;;;;;947.30;1280.00;;;;;;5090538;28;19915;-59
2022/09/30 08:03:47;;;;;;;;;;;947.80;1228.80;;;;;;5091808;28;20331;-59
2022/09/30 08:06:14;;;;;;;;;;;948.00;1254.40;;;;;;5094536;28;20015;-60
2022/09/30 08:08:40;;;;;;;;;;;947.60;1254.40;;;;;;5094351;28;19923;-60
2022/09/30 08:11:06;;;;;;;;;;;973.20;1228.80;;;;;;5094386;28;19908;-60
2022/09/30 08:13:32;;;;;;;;;;;922.50;1305.60;;;;;;5094631;28;20362;-60
2022/09/30 08:15:58;;;;;;;;;;;922.10;1305.60;;;;;;5094051;28;20389;-72
2022/09/30 08:18:23;;;;;;;;;;;922.50;1305.60;;;;;;5094669;28;19919;-68
2022/09/30 08:20:49;;;;;;;;;;;921.80;1331.20;;;;;;5094225;28;19909;-75
2022/09/30 08:23:15;;;;;;;;;;;896.50;1331.20;;;;;;5094241;28;19909;-72
2022/09/30 08:25:40;;;;;;;;;;;871.20;1356.80;;;;;;5094163;28;19934;-70
2022/09/30 08:28:06;;;;;;;;;;;845.70;1382.40;;;;;;5093957;28;19917;-71
2022/09/30 08:30:33;;;;;;;;;;;819.80;1408.00;;;;;;5094283;28;20306;-71
2022/09/30 08:32:59;;;;;;;;;;;794.50;1459.20;;;;;;5093944;28;19991;-73
2022/09/30 08:35:25;;;;;;;;;;;819.40;1433.60;;;;;;5094107;28;20023;-72
2022/09/30 08:37:50;;;;;;;;;;;820.10;1408.00;;;;;;5094335;28;19943;-72
2022/09/30 08:40:18;;;;;;;;;;;819.70;1433.60;;;;;;5093997;28;20331;-72
2022/09/30 08:42:46;;;;;;;;;;;819.90;1433.60;;;;;;5093951;28;19916;-72
2022/09/30 08:45:22;;;;;;;;;;;819.70;1459.20;;;;;;5093942;28;19908;-72
2022/09/30 08:47:52;;;;;;;;;;;845.40;1459.20;;;;;;5093632;28;20285;-66
2022/09/30 08:50:34;;;;;;;;;;;794.20;1510.40;;;;;;5093635;28;19908;-70
2022/09/30 08:53:07;;;;;;;;;;;794.20;1561.60;;;;;;5093919;28;19970;-73
2022/09/30 08:55:40;;;;;;;;;;;794.20;1510.40;;;;;;5093871;28;20439;-74
2022/09/30 08:58:13;;;;;;;;;;;768.40;1587.20;;;;;;5093539;28;19912;-74
2022/09/30 09:00:40;;;;;;;;;;;768.40;1561.60;;;;;;5093760;28;19912;-72
2022/09/30 09:03:09;;;;;;;;;;;768.10;1587.20;;;;;;5093116;28;19908;-74
2022/09/30 09:05:53;;;;;;;;;;;768.40;1587.20;;;;;;5093166;28;19924;-73
2022/09/30 09:08:18;;;;;;;;;;;768.20;1612.80;;;;;;5093618;28;19955;-73
2022/09/30 09:10:47;;;;;;;;;;;743.30;1612.80;;;;;;5093152;28;20342;-73
2022/09/30 09:13:18;;;;;;;;;;;742.80;1638.40;;;;;;5093433;28;19908;-73
2022/09/30 09:15:49;;;;;;;;;;;743.10;1638.40;;;;;;5092901;28;19958;-73
2022/09/30 09:18:18;;;;;;;;;;;743.00;1638.40;;;;;;5092932;28;20331;-73
2022/09/30 09:21:03;;;;;;;;;;;768.00;1638.40;;;;;;5093119;28;19980;-66
2022/09/30 09:23:31;;;;;;;;;;;743.20;1638.40;;;;;;5070847;28;19909;-72
2022/09/30 09:25:57;;;;;;;;;;;743.10;1638.40;;;;;;5070562;28;19908;-71
2022/09/30 09:28:26;;;;;;;;;;;742.90;1664.00;;;;;;5070637;28;19943;-60
2022/09/30 09:30:56;;;;;;;;;;;742.70;1689.60;;;;;;5070656;28;19908;-67
2022/09/30 09:33:26;;;;;;;;;;;717.70;1689.60;;;;;;5070631;28;19912;-71
2022/09/30 09:36:01;;;;;;;;;;;717.70;1715.20;;;;;;5070739;28;19913;-71
2022/09/30 09:38:34;;;;;;;;;;;717.40;1792.00;;;;;;5070234;28;19909;-71
2022/09/30 09:41:01;;;;;;;;;;;716.80;1766.40;;;;;;5070599;28;19908;-72
2022/09/30 09:43:32;;;;;;;;;;;691.80;1792.00;;;;;;5070176;28;19908;-71
2022/09/30 09:46:10;;;;;;;;;;;691.60;1817.60;;;;;;5070489;28;19915;-71
2022/09/30 09:48:36;;;;;;;;;;;691.60;1792.00;;;;;;5070074;28;19917;-71
2022/09/30 09:51:07;;;;;;;;;;;691.90;1792.00;;;;;;5070316;28;20004;-71
2022/09/30 09:53:36;;;;;;;;;;;692.00;1740.80;;;;;;5070096;28;19955;-70
2022/09/30 09:56:17;;;;;;;;;;;691.60;1792.00;;;;;;5070203;28;19919;-68
2022/09/30 09:59:03;;;;;;;;;;;692.10;1740.80;;;;;;5070140;28;20434;-70
2022/09/30 10:01:33;;;;;;;;;;;716.90;1766.40;;;;;;5089563;28;19974;-65
2022/09/30 10:04:20;;;;;;;;;;;716.80;1766.40;;;;;;5092245;28;19912;-65
2022/09/30 10:06:58;;;;;;;;;;;692.00;1740.80;;;;;;5092230;28;19916;-64
2022/09/30 10:09:24;;;;;;;;;;;692.10;1740.80;;;;;;5091531;28;19924;-59
2022/09/30 10:11:51;;;;;;;;;;;691.90;1715.20;;;;;;5092296;28;19909;-65
2022/09/30 10:14:18;;;;;;;;;;;692.00;1740.80;;;;;;5091992;28;19912;-63
2022/09/30 10:16:43;;;;;;;;;;;716.90;1740.80;;;;;;5092117;28;19916;-60
2022/09/30 10:19:35;;;;;;;;;;;692.10;1715.20;;;;;;5092015;28;19999;-64
2022/09/30 10:22:07;;;;;;;;;;;691.70;1740.80;;;;;;5090812;28;20319;-64
2022/09/30 10:24:33;;;;;;;;;;;691.70;1740.80;;;;;;5092164;28;19915;-65
2022/09/30 10:26:58;;;;;;;;;;;716.90;1740.80;;;;;;5091353;28;20273;-65
2022/09/30 10:29:26;;;;;;;;;;;717.40;1740.80;;;;;;5091958;28;19912;-64
2022/09/30 10:31:52;;;;;;;;;;;717.30;1715.20;;;;;;5092025;28;19908;-65
2022/09/30 10:34:28;;;;;;;;;;;717.40;1715.20;;;;;;5091537;28;20362;-59
2022/09/30 10:36:55;;;;;;;;;;;717.30;1715.20;;;;;;5091718;28;19916;-60
2022/09/30 10:39:25;;;;;;;;;;;717.10;1689.60;;;;;;5091999;28;19951;-65
2022/09/30 10:42:00;;;;;;;;;;;717.10;1715.20;;;;;;5092043;28;20003;-63
2022/09/30 10:44:26;;;;;;;;;;;716.90;1715.20;;;;;;5091709;28;20312;-65
2022/09/30 10:46:57;;;;;;;;;;;692.10;1689.60;;;;;;5091658;28;19915;-64
2022/09/30 10:49:30;;;;;;;;;;;691.90;1612.80;;;;;;5091695;28;19916;-65
2022/09/30 10:51:57;;;;;;;;;;;717.10;1638.40;;;;;;5091228;28;19912;-64
2022/09/30 10:54:34;;;;;;;;;;;717.20;1612.80;;;;;;5091625;28;19908;-65
2022/09/30 10:57:02;;;;;;;;;;;717.00;1561.60;;;;;;5091519;28;19908;-65
2022/09/30 10:59:36;;;;;;;;;;;717.40;1561.60;;;;;;5091429;28;19915;-64
2022/09/30 11:02:23;;;;;;;;;;;717.40;1561.60;;;;;;5091195;28;19908;-60
2022/09/30 11:04:58;;;;;;;;;;;717.30;1536.00;;;;;;5091090;28;20290;-65
2022/09/30 11:07:24;;;;;;;;;;;717.40;1536.00;;;;;;5090750;28;19927;-62
2022/09/30 11:09:54;;;;;;;;;;;717.30;1510.40;;;;;;5091381;28;19908;-61
2022/09/30 11:12:26;;;;;;;;;;;717.20;1536.00;;;;;;5091205;28;19939;-65
2022/09/30 11:14:56;;;;;;;;;;;717.20;1561.60;;;;;;5091069;28;20411;-65
2022/09/30 11:17:26;;;;;;;;;;;717.10;1510.40;;;;;;5091224;28;20320;-66
2022/09/30 11:20:13;;;;;;;;;;;717.30;1536.00;;;;;;5091026;28;19961;-64
2022/09/30 11:22:52;;;;;;;;;;;717.40;1510.40;;;;;;5091080;28;19999;-62
2022/09/30 11:25:23;;;;;;;;;;;717.50;1536.00;;;;;;5090886;28;19962;-64
2022/09/30 11:28:12;;;;;;;;;;;717.50;1484.80;;;;;;5091181;28;20019;-66
2022/09/30 11:30:56;;;;;;;;;;;717.70;1510.40;;;;;;5090607;28;20366;-65
2022/09/30 11:33:41;;;;;;;;;;;742.40;1561.60;;;;;;5091007;28;19919;-65
2022/09/30 11:36:23;;;;;;;;;;;742.70;1536.00;;;;;;5090527;28;19912;-64
2022/09/30 11:38:58;;;;;;;;;;;742.80;1510.40;;;;;;5089796;28;19914;-65
2022/09/30 11:41:23;;;;;;;;;;;743.10;1561.60;;;;;;5090683;28;19912;-61
2022/09/30 11:43:52;;;;;;;;;;;743.10;1561.60;;;;;;5090778;28;19915;-64
2022/09/30 11:46:36;;;;;;;;;;;742.90;1510.40;;;;;;5090597;28;19912;-64
2022/09/30 11:49:02;;;;;;;;;;;742.80;1536.00;;;;;;5090590;28;19916;-65
2022/09/30 11:51:35;;;;;;;;;;;742.50;1510.40;;;;;;5090684;28;19973;-60
2022/09/30 11:54:19;;;;;;;;;;;742.40;1536.00;;;;;;5090750;28;19916;-64
2022/09/30 11:56:54;;;;;;;;;;;742.40;1561.60;;;;;;5090480;28;20259;-63
2022/09/30 11:59:31;;;;;;;;;;;742.50;1510.40;;;;;;5090696;28;19908;-64
2022/09/30 12:01:59;;;;;;;;;;;742.80;1484.80;;;;;;5090493;28;19911;-64
2022/09/30 12:04:30;;;;;;;;;;;742.80;1484.80;;;;;;5090170;28;20274;-61
2022/09/30 12:07:11;;;;;;;;;;;742.80;1484.80;;;;;;5090209;28;19912;-64
2022/09/30 12:09:43;;;;;;;;;;;742.80;1484.80;;;;;;5090228;28;19963;-64
2022/09/30 12:12:11;;;;;;;;;;;742.60;1484.80;;;;;;5090673;28;19915;-64
2022/09/30 12:14:50;;;;;;;;;;;742.60;1510.40;;;;;;5090368;28;19908;-61
2022/09/30 12:17:25;;;;;;;;;;;742.50;1510.40;;;;;;5090257;28;19908;-61
2022/09/30 12:19:52;;;;;;;;;;;717.70;1510.40;;;;;;5090779;28;19908;-65
2022/09/30 12:22:23;;;;;;;;;;;717.70;1484.80;;;;;;5090081;28;19915;-60
2022/09/30 12:24:49;;;;;;;;;;;717.70;1459.20;;;;;;5090636;28;19908;-65
2022/09/30 12:27:26;;;;;;;;;;;742.50;1510.40;;;;;;5090353;28;20250;-65
2022/09/30 12:30:16;;;;;;;;;;;742.50;1484.80;;;;;;5090586;28;20017;-65
2022/09/30 12:33:00;;;;;;;;;;;742.90;1484.80;;;;;;5090160;28;19916;-61
2022/09/30 12:35:44;;;;;;;;;;;743.10;1459.20;;;;;;5090106;28;20007;-65
2022/09/30 12:38:19;;;;;;;;;;;743.20;1459.20;;;;;;5090021;28;20000;-65
2022/09/30 12:40:45;;;;;;;;;;;743.10;1510.40;;;;;;5087620;28;19995;-63
2022/09/30 12:43:10;;;;;;;;;;;743.00;1484.80;;;;;;5090220;28;19915;-65
2022/09/30 12:45:38;;;;;;;;;;;743.00;1561.60;;;;;;5089755;28;19912;-64
2022/09/30 12:48:07;;;;;;;;;;;743.10;1612.80;;;;;;5089559;28;20344;-61
2022/09/30 12:50:38;;;;;;;;;;;743.10;1484.80;;;;;;5092992;28;19939;-63
2022/09/30 12:53:22;;;;;;;;;;;742.90;1484.80;;;;;;5093414;28;20193;-64
2022/09/30 12:55:48;;;;;;;;;;;742.90;1510.40;;;;;;5091192;28;19908;-64
2022/09/30 12:58:21;;;;;;;;;;;742.90;1536.00;;;;;;5093917;28;19957;-62
2022/09/30 13:01:01;;;;;;;;;;;742.90;1587.20;;;;;;5093736;28;19908;-65
2022/09/30 13:03:27;;;;;;;;;;;742.80;1536.00;;;;;;5093247;28;20061;-65
2022/09/30 13:05:55;;;;;;;;;;;742.60;1638.40;;;;;;5093583;28;20034;-63
2022/09/30 13:08:20;;;;;;;;;;;743.00;1689.60;;;;;;5093417;28;20010;-64
2022/09/30 13:10:52;;;;;;;;;;;742.50;1664.00;;;;;;5093267;28;19952;-63
2022/09/30 13:13:23;;;;;;;;;;;742.40;1689.60;;;;;;5093226;28;19908;-64
2022/09/30 13:15:52;;;;;;;;;;;742.40;1689.60;;;;;;5093276;28;20258;-63
2022/09/30 13:18:21;;;;;;;;;;;717.50;1689.60;;;;;;5093092;28;19908;-65
2022/09/30 13:20:50;;;;;;;;;;;717.40;1689.60;;;;;;5093153;28;20266;-64
2022/09/30 13:23:34;;;;;;;;;;;717.30;1715.20;;;;;;5093132;28;19933;-62
2022/09/30 13:26:01;;;;;;;;;;;717.20;1689.60;;;;;;5093153;28;20342;-63
2022/09/30 13:28:29;;;;;;;;;;;717.40;1689.60;;;;;;5093082;28;19916;-64
2022/09/30 13:31:17;;;;;;;;;;;717.40;1715.20;;;;;;5092915;28;19908;-64
2022/09/30 13:33:44;;;;;;;;;;;717.40;1715.20;;;;;;5092883;28;19957;-62
2022/09/30 13:36:30;;;;;;;;;;;717.10;1715.20;;;;;;5091643;28;19940;-60
2022/09/30 13:39:14;;;;;;;;;;;717.10;1740.80;;;;;;5090647;28;20014;-62
2022/09/30 13:41:41;;;;;;;;;;;717.30;1740.80;;;;;;5091081;28;19919;-64
2022/09/30 13:44:19;;;;;;;;;;;717.10;1740.80;;;;;;5090206;28;19954;-66
2022/09/30 13:46:49;;;;;;;;;;;717.00;1766.40;;;;;;5090719;28;19916;-62
2022/09/30 13:49:33;;;;;;;;;;;717.00;1740.80;;;;;;5090427;28;19922;-65
2022/09/30 13:51:59;;;;;;;;;;;717.00;1766.40;;;;;;5091199;28;19908;-64
2022/09/30 13:54:25;;;;;;;;;;;716.90;1766.40;;;;;;5090947;28;20317;-62
2022/09/30 13:56:52;;;;;;;;;;;716.90;1766.40;;;;;;5090978;28;19998;-67
2022/09/30 13:59:20;;;;;;;;;;;716.90;1766.40;;;;;;5090850;28;19908;-64